Time;durP1;ratioP1;P1;durP2;ratioP2;P2;SDS_P1;SDS_P2;PMS_P1;PMS_P2;Temp;Humidity;BMP_temperature;BMP_pressure;BME280_temperature;BME280_humidity;BME280_pressure;Samples;Min_cycle;Max_cycle;Signal;HPM_P1;HPM_P2
2022/12/16 00:02:00;;;;;;;12.30;4.28;;;;;;;-1.72;67.55;99499.53;10341229;28;20076;-69
2022/12/16 00:07:01;;;;;;;14.98;5.95;;;;;;;-1.65;67.52;99497.28;10335746;28;20046;-69
2022/12/16 00:12:03;;;;;;;11.70;4.25;;;;;;;-1.65;67.71;99494.63;10327770;28;20126;-68
2022/12/16 00:17:05;;;;;;;11.98;3.97;;;;;;;-1.65;67.66;99487.56;10341241;28;20043;-69
2022/12/16 00:22:06;;;;;;;11.90;3.88;;;;;;;-1.62;67.48;99491.75;10341290;28;20046;-69
2022/12/16 00:27:08;;;;;;;10.13;3.58;;;;;;;-1.60;67.60;99489.84;10343074;28;20124;-67
2022/12/16 00:32:09;;;;;;;10.35;3.75;;;;;;;-1.57;67.46;99494.88;10338018;28;20116;-68
2022/12/16 00:37:12;;;;;;;15.15;4.95;;;;;;;-1.56;67.77;99486.03;10334848;28;20090;-68
2022/12/16 00:42:13;;;;;;;11.70;3.45;;;;;;;-1.52;67.63;99490.09;10334707;28;20061;-69
2022/12/16 00:47:14;;;;;;;10.27;3.80;;;;;;;-1.53;67.77;99477.03;10337181;28;20046;-68
2022/12/16 00:52:16;;;;;;;9.13;3.42;;;;;;;-1.49;67.82;99479.31;10331912;28;20128;-68
2022/12/16 00:57:17;;;;;;;6.70;2.25;;;;;;;-1.51;67.77;99472.47;10337691;28;20553;-68
2022/12/16 01:02:19;;;;;;;9.05;3.65;;;;;;;-1.53;67.78;99472.59;10337677;28;20081;-67
2022/12/16 01:07:20;;;;;;;9.30;4.13;;;;;;;-1.48;67.87;99478.34;10339578;28;20413;-69
2022/12/16 01:12:22;;;;;;;13.55;3.67;;;;;;;-1.44;67.80;99476.31;10339859;28;20078;-69
2022/12/16 01:17:24;;;;;;;11.40;3.58;;;;;;;-1.45;67.67;99483.38;10342526;28;20078;-69
2022/12/16 01:22:29;;;;;;;10.60;3.40;;;;;;;-1.43;67.76;99497.25;10342446;28;20564;-68
2022/12/16 01:27:30;;;;;;;10.95;3.53;;;;;;;-1.35;67.74;99495.84;10345782;28;20176;-68
2022/12/16 01:32:32;;;;;;;9.05;3.15;;;;;;;-1.36;67.62;99502.91;10344347;28;20913;-68
2022/12/16 01:37:33;;;;;;;7.40;2.58;;;;;;;-1.41;67.58;99499.78;10329622;28;20463;-69
2022/12/16 01:42:35;;;;;;;8.23;2.75;;;;;;;-1.39;67.27;99511.03;10344337;28;20112;-70
2022/12/16 01:47:36;;;;;;;8.60;2.50;;;;;;;-1.42;67.65;99517.41;10343271;28;20104;-68
2022/12/16 01:52:43;;;;;;;8.45;3.10;;;;;;;-1.42;67.65;99522.69;10344160;28;20088;-68
2022/12/16 01:57:53;;;;;;;6.57;2.63;;;;;;;-1.44;67.89;99532.50;10350434;28;20133;-69
2022/12/16 02:02:57;;;;;;;6.47;2.80;;;;;;;-1.43;67.46;99526.25;10347881;28;20048;-67
2022/12/16 02:08:09;;;;;;;5.78;2.40;;;;;;;-1.39;67.51;99534.75;10344761;28;20050;-67
2022/12/16 02:13:25;;;;;;;12.30;2.65;;;;;;;-1.42;67.64;99527.94;10348229;28;20069;-67
2022/12/16 02:18:57;;;;;;;9.75;3.33;;;;;;;-1.37;67.51;99529.38;10341795;28;20181;-67
2022/12/16 02:24:17;;;;;;;8.60;2.90;;;;;;;-1.36;67.48;99537.19;10329508;28;20568;-66
2022/12/16 02:29:32;;;;;;;7.45;2.50;;;;;;;-1.31;67.53;99529.72;10344837;28;20092;-67
2022/12/16 02:34:48;;;;;;;4.10;2.10;;;;;;;-1.27;67.69;99532.97;10342658;28;20136;-67
2022/12/16 02:39:57;;;;;;;9.32;2.75;;;;;;;-1.26;67.38;99534.66;10340846;28;20706;-67
2022/12/16 02:45:16;;;;;;;7.35;2.35;;;;;;;-1.26;67.50;99535.50;10342337;28;20133;-67
2022/12/16 02:50:33;;;;;;;5.68;2.22;;;;;;;-1.24;67.06;99525.66;10348704;28;20529;-67
2022/12/16 02:55:44;;;;;;;6.72;1.95;;;;;;;-1.27;67.58;99532.97;10344229;28;20050;-68
2022/12/16 03:01:16;;;;;;;7.30;1.85;;;;;;;-1.27;67.32;99530.34;10330859;28;20046;-68
2022/12/16 03:06:20;;;;;;;4.65;1.45;;;;;;;-1.21;67.48;99521.94;10324441;28;20050;-68
2022/12/16 03:11:26;;;;;;;6.30;1.75;;;;;;;-1.20;67.62;99536.81;10338011;28;20050;-67
2022/12/16 03:16:31;;;;;;;3.72;1.75;;;;;;;-1.17;67.23;99531.28;10345852;28;20054;-68
2022/12/16 03:21:43;;;;;;;6.65;1.48;;;;;;;-1.07;67.60;99526.13;10344499;28;20156;-67
2022/12/16 03:26:54;;;;;;;3.42;1.40;;;;;;;-1.00;67.15;99532.59;10342391;28;20553;-66
2022/12/16 03:31:57;;;;;;;2.67;1.40;;;;;;;-0.98;67.82;99535.09;10340905;28;20043;-67
2022/12/16 03:37:02;;;;;;;4.82;1.35;;;;;;;-0.89;67.48;99537.00;10343052;28;20065;-67
2022/12/16 03:42:05;;;;;;;5.43;1.20;;;;;;;-0.85;67.73;99531.38;10339822;28;20046;-67
2022/12/16 03:47:07;;;;;;;4.93;1.00;;;;;;;-0.76;67.25;99534.22;10342639;28;21984;-67
2022/12/16 03:52:08;;;;;;;4.82;1.10;;;;;;;-0.76;67.29;99544.78;10339827;28;20555;-66
2022/12/16 03:57:10;;;;;;;4.20;1.20;;;;;;;-0.68;67.40;99550.25;10347164;28;20077;-66
2022/12/16 04:02:15;;;;;;;4.07;1.52;;;;;;;-0.62;67.61;99553.25;10339779;28;20049;-67
2022/12/16 04:07:20;;;;;;;4.60;1.60;;;;;;;-0.60;67.55;99559.22;10341313;28;20046;-68
2022/12/16 04:28:23;;;;;;;5.07;1.23;;;;;;;-0.66;67.73;99578.19;10339631;28;20070;-66
